x

Capers Nearshore (cap 2) (41029) Weather Station

5:08am - Sat 20th Jan 2018 All times are EST. -5 hours from GMT.

  • Wind
    9mph, 13mph gusts
  • Sea Temp 47°f
  • Air Temp 42°f
  • Sea Pressure 1023.8mb
  • Capers Nearshore (cap 2)
  • Capers Nearshore (cap 2)

More Historic Weather Station data

Upgrade to MSW Pro to gain access to the past 30 days of data for over 8000 Wavebouys and Weather Stations around the globe.

Join

Comparision Forecast

View Surf forecast
   
Sat 01/20 5:08am 9 13 mph 1023.8mb 47f 42f
4:08am 11 16 mph 1023.9mb - 42f
3:08am 11 16 mph 1023.7mb 46f 42f
2:08am 7 11 mph 1023.8mb 47f 42f
1:08am 11 16 mph 1023.8mb 47f 43f
12:08am 16 22 mph 1023.8mb 48f 44f
Fri 01/19 11:08pm 13 18 mph 1024mb 49f 45f
10:08pm 11 13 mph 1023.4mb 50f 45f
9:08pm 11 16 mph 1023.4mb 50f 46f
8:08pm 13 20 mph 1023.2mb 49f 46f
7:08pm 13 18 mph 1023.2mb 49f 46f
6:08pm 16 20 mph 1023mb 49f 46f
5:08pm 16 22 mph 1022.6mb 49f 47f
4:08pm 13 20 mph 1022.7mb 49f 47f
3:08pm 13 20 mph 1022.9mb 49f 46f
2:08pm 13 20 mph 1023.6mb 48f 45f
1:08pm 16 22 mph 1024.3mb 48f 44f
12:08pm 16 20 mph 1025.4mb 48f 44f
11:08am 16 25 mph 1026.1mb 48f 44f
10:08am 16 22 mph 1026.3mb 48f 42f
9:08am 13 18 mph 1025.7mb 48f 42f
7:08am 11 13 mph 1025.9mb 48f 37f
6:08am 11 16 mph 1025.5mb 48f 38f
5:08am 11 16 mph 1025.5mb 48f 37f
4:08am 11 16 mph 1025.5mb 48f 37f
3:08am 13 18 mph 1025.5mb 47f 37f
2:08am 13 16 mph 1025.7mb 47f 38f
1:08am 11 16 mph 1026.1mb 47f 38f
12:08am 11 16 mph 1026.5mb 48f 39f
Thu 01/18 11:08pm 9 11 mph 1026.5mb 48f 39f
10:08pm 11 16 mph 1026.4mb 48f 38f
9:08pm 9 13 mph 1026mb 48f 38f
8:08pm 11 16 mph 1025.7mb 49f 38f
7:08pm 11 16 mph 1025.7mb 49f 39f
6:08pm 11 16 mph 1026mb 49f 39f
5:08pm 16 22 mph 1025.5mb 48f 40f
4:08pm 16 20 mph 1025.1mb 48f 41f
3:08pm 13 20 mph 1025.2mb 48f 40f
2:08pm 16 22 mph 1025.8mb 47f 38f
1:08pm 16 25 mph 1026.5mb 48f 35f
12:08pm 18 27 mph 1027.7mb 48f 33f
11:08am 18 25 mph 1028.9mb 48f 31f
10:08am 20 29 mph 1028.9mb 48f 28f
9:08am 20 29 mph 1028.7mb 49f 27f
7:08am 20 29 mph 1027.3mb 48f 26f
6:08am 18 27 mph 1027.1mb 49f 27f
4:08am 22 31 mph 1025.4mb 48f 27f
3:08am 22 31 mph 1025.1mb 48f 28f
2:08am 22 34 mph 1024.5mb 48f 29f
1:08am 22 29 mph 1024.4mb 47f 30f
12:08am 25 36 mph 1023.9mb 48f 31f
Wed 01/17 11:08pm 25 36 mph 1023.6mb 48f 33f
10:08pm 20 29 mph 1023.3mb 48f 34f
9:08pm 25 36 mph 1022.4mb 48f 35f
8:08pm 22 31 mph 1022.2mb 49f 36f
7:08pm 22 34 mph 1021.7mb 49f 37f
6:08pm 22 31 mph 1020.9mb 48f 38f
5:08pm 18 25 mph 1020.4mb 48f 41f
4:08pm 18 25 mph 1019.8mb 48f 42f
3:08pm 20 27 mph 1020mb 47f 43f
2:08pm 18 25 mph 1020mb 48f 45f
1:08pm 9 11 mph 1020.2mb 48f 48f
12:08pm 11 16 mph 1021.8mb 48f 48f
11:08am 4 7 mph 1022.7mb 48f 48f
10:08am 2 4 mph 1023.4mb 47f 49f
9:08am 2 4 mph 1023.1mb 47f 48f
8:08am 4 7 mph 1023mb 47f 44f
7:08am 7 9 mph 1023mb 48f 43f
6:08am 7 9 mph 1023.4mb 48f 42f
4:08am 4 7 mph 1024mb 47f 43f
2:08am 4 7 mph 1025mb 47f 42f
1:08am 4 7 mph 1025.3mb 48f 43f
12:08am 4 9 mph 1025.8mb 48f 43f
Tue 01/16 11:08pm 4 7 mph 1026.5mb 48f 42f
10:08pm 7 9 mph 1027.1mb 47f 42f
9:08pm 4 9 mph 1027.6mb 48f 43f
8:08pm 2 4 mph 1027.6mb 48f 43f
7:08pm 2 4 mph 1027.8mb 48f 43f
6:08pm 2 4 mph 1027.7mb 47f 44f
5:08pm 4 9 mph 1027.9mb 47f 44f
4:08pm 2 4 mph 1028.3mb 48f 47f
3:08pm 7 9 mph 1028.2mb 47f 46f
2:08pm 9 11 mph 1028.5mb 47f 44f
1:08pm 9 11 mph 1029.6mb 47f 43f
12:08pm 9 13 mph 1030.5mb 47f 42f
11:08am 9 13 mph 1031.6mb 47f 41f